createdAt,value
2023-03-07T00:01:00.430Z,93312.56
2023-03-07T00:03:27.392Z,93309.81
2023-03-07T00:06:04.516Z,93313.38
2023-03-07T00:08:32.086Z,93282.78
2023-03-07T00:11:06.983Z,93297.75
2023-03-07T00:13:34.743Z,93291.75
2023-03-07T00:16:06.543Z,93274.53
2023-03-07T00:18:34.023Z,93277.25
2023-03-07T00:21:02.879Z,93278.63
2023-03-07T00:23:29.505Z,93267.22
2023-03-07T00:26:03.366Z,93268.31
2023-03-07T00:28:30.540Z,93259.16
2023-03-07T00:31:02.313Z,93254.00
2023-03-07T00:33:29.487Z,93248.03
2023-03-07T00:36:23.282Z,93258.41
2023-03-07T00:38:50.642Z,93258.53
2023-03-07T00:41:20.232Z,93258.88
2023-03-07T00:43:47.648Z,93260.56
2023-03-07T00:46:19.139Z,93260.84
2023-03-07T00:48:46.063Z,93267.06
2023-03-07T00:51:15.843Z,93276.16
2023-03-07T00:53:43.385Z,93254.59
2023-03-07T00:56:18.173Z,93250.81
2023-03-07T00:58:45.737Z,93262.38
2023-03-07T01:01:14.700Z,93265.25
2023-03-07T01:03:42.232Z,93260.97
2023-03-07T01:06:13.536Z,93252.47
2023-03-07T01:08:40.660Z,93259.53
2023-03-07T01:11:07.890Z,93235.47
2023-03-07T01:13:35.481Z,93246.81
2023-03-07T01:16:08.500Z,93240.59
2023-03-07T01:18:35.161Z,93236.31
2023-03-07T01:21:01.773Z,93226.63
2023-03-07T01:23:28.425Z,93227.25
2023-03-07T01:25:55.060Z,93219.34
2023-03-07T01:28:21.672Z,93226.28
2023-03-07T01:30:57.375Z,93223.03
2023-03-07T01:33:24.010Z,93219.38
2023-03-07T01:35:50.639Z,93213.00
2023-03-07T01:38:17.368Z,93210.78
2023-03-07T01:40:43.970Z,93213.22
2023-03-07T01:43:29.130Z,93237.09
2023-03-07T01:46:17.326Z,93225.06
2023-03-07T01:49:03.864Z,93223.84
2023-03-07T01:51:31.970Z,93216.91
2023-03-07T01:54:00.875Z,93242.28
2023-03-07T01:56:28.075Z,93260.38
2023-03-07T01:58:55.616Z,93251.78
2023-03-07T02:01:23.879Z,93232.16
2023-03-07T02:04:16.053Z,93226.47
2023-03-07T02:06:43.153Z,93247.63
2023-03-07T02:09:15.961Z,93254.28
2023-03-07T02:11:45.068Z,93268.13
2023-03-07T02:14:11.993Z,93260.28
2023-03-07T02:16:39.852Z,93249.66
2023-03-07T02:19:30.856Z,93243.44
2023-03-07T02:22:03.248Z,93227.00
2023-03-07T02:24:39.453Z,93241.72
2023-03-07T02:27:06.270Z,93227.38
2023-03-07T02:29:32.947Z,93232.06
2023-03-07T02:31:59.615Z,93244.88
2023-03-07T02:34:31.024Z,93247.41
2023-03-07T02:37:34.737Z,93244.91
2023-03-07T02:40:06.644Z,93241.69
2023-03-07T02:42:37.765Z,93243.56
2023-03-07T02:45:10.194Z,93257.72
2023-03-07T02:47:36.930Z,93257.34
2023-03-07T02:50:04.838Z,93243.16
2023-03-07T02:52:31.744Z,93248.47
2023-03-07T02:54:58.701Z,93253.13
2023-03-07T02:57:25.418Z,93255.03
2023-03-07T02:59:52.087Z,93249.06
2023-03-07T03:02:18.660Z,93256.19
2023-03-07T03:04:45.372Z,93251.72
2023-03-07T03:07:12.088Z,93253.31
2023-03-07T03:09:38.688Z,93251.31
2023-03-07T03:12:05.601Z,93256.22
2023-03-07T03:14:32.736Z,93244.00
2023-03-07T03:16:59.441Z,93243.72
2023-03-07T03:19:26.074Z,93251.97
2023-03-07T03:21:52.672Z,93258.25
2023-03-07T03:24:19.331Z,93242.31
2023-03-07T03:26:45.949Z,93248.03
2023-03-07T03:29:12.537Z,93241.97
2023-03-07T03:31:39.230Z,93235.16
2023-03-07T03:34:05.927Z,93240.19
2023-03-07T03:36:32.870Z,93248.38
2023-03-07T03:39:00.476Z,93263.59
2023-03-07T03:41:27.380Z,93249.03
2023-03-07T03:43:54.011Z,93256.78
2023-03-07T03:46:20.701Z,93267.91
2023-03-07T03:48:54.221Z,93260.84
2023-03-07T03:51:21.871Z,93271.38
2023-03-07T03:53:49.325Z,93264.13
2023-03-07T03:56:20.511Z,93268.53
2023-03-07T03:58:49.111Z,93261.31
2023-03-07T04:01:15.936Z,93261.00
2023-03-07T04:03:46.976Z,93255.91
2023-03-07T04:06:16.702Z,93254.00
2023-03-07T04:08:43.324Z,93252.22
2023-03-07T04:11:10.299Z,93252.09
2023-03-07T04:13:37.164Z,93261.75
2023-03-07T04:16:04.652Z,93261.53
2023-03-07T04:18:31.805Z,93268.34
2023-03-07T04:20:58.529Z,93257.25
2023-03-07T04:23:25.656Z,93253.50
2023-03-07T04:25:57.713Z,93263.06
2023-03-07T04:28:28.022Z,93260.75
2023-03-07T04:30:56.323Z,93268.94
2023-03-07T04:33:23.388Z,93272.59
2023-03-07T04:35:50.157Z,93269.69
2023-03-07T04:38:16.826Z,93274.88
2023-03-07T04:40:43.462Z,93271.94
2023-03-07T04:43:10.060Z,93278.50
2023-03-07T04:45:37.437Z,93282.72
2023-03-07T04:48:04.733Z,93280.31
2023-03-07T04:50:31.454Z,93281.31
2023-03-07T04:52:58.062Z,93290.63
2023-03-07T04:55:24.692Z,93293.34
2023-03-07T04:57:52.090Z,93275.28
2023-03-07T05:00:20.154Z,93270.88
2023-03-07T05:02:48.552Z,93281.00
2023-03-07T05:05:16.332Z,93274.81
2023-03-07T05:07:43.626Z,93274.41
2023-03-07T05:10:11.542Z,93278.13
2023-03-07T05:12:38.360Z,93288.03
2023-03-07T05:15:05.798Z,93292.78
2023-03-07T05:17:32.424Z,93291.75
2023-03-07T05:19:59.098Z,93291.44
2023-03-07T05:22:25.716Z,93290.72
2023-03-07T05:24:52.277Z,93288.13
2023-03-07T05:27:18.947Z,93292.69
2023-03-07T05:29:45.600Z,93289.03
2023-03-07T05:32:12.211Z,93282.78
2023-03-07T05:34:38.891Z,93277.81
2023-03-07T05:37:06.249Z,93287.59
2023-03-07T05:39:35.322Z,93294.50
2023-03-07T05:42:02.419Z,93299.28
2023-03-07T05:44:29.018Z,93298.13
2023-03-07T05:46:55.756Z,93294.22
2023-03-07T05:49:25.103Z,93306.56
2023-03-07T05:51:51.839Z,93304.72
2023-03-07T05:54:18.473Z,93306.19
2023-03-07T05:56:45.102Z,93299.09
2023-03-07T05:59:15.463Z,93299.25
2023-03-07T06:01:43.028Z,93304.16
2023-03-07T06:04:10.132Z,93302.03
2023-03-07T06:06:38.786Z,93303.97
2023-03-07T06:09:05.855Z,93304.88
2023-03-07T06:11:33.679Z,93312.81
2023-03-07T06:14:00.423Z,93315.56
2023-03-07T06:16:27.209Z,93322.72
2023-03-07T06:18:54.005Z,93307.47
2023-03-07T06:21:20.627Z,93311.50
2023-03-07T06:23:47.345Z,93310.53
2023-03-07T06:26:15.025Z,93311.41
2023-03-07T06:28:42.649Z,93308.84
2023-03-07T06:31:11.722Z,93328.75
2023-03-07T06:33:38.739Z,93320.16
2023-03-07T06:36:08.045Z,93314.59
2023-03-07T06:38:35.057Z,93313.81
2023-03-07T06:41:01.671Z,93323.47
2023-03-07T06:43:28.603Z,93330.13
2023-03-07T06:45:55.376Z,93329.78
2023-03-07T06:48:22.025Z,93337.91
2023-03-07T06:50:48.751Z,93330.56
2023-03-07T06:53:15.585Z,93326.00
2023-03-07T06:55:42.591Z,93330.63
2023-03-07T06:58:09.193Z,93336.72
2023-03-07T07:00:35.827Z,93339.06
2023-03-07T07:03:02.588Z,93341.19
2023-03-07T07:05:29.311Z,93342.13
2023-03-07T07:07:56.511Z,93328.00
2023-03-07T07:10:24.352Z,93340.88
2023-03-07T07:12:56.770Z,93330.06
2023-03-07T07:15:24.957Z,93320.22
2023-03-07T07:17:52.454Z,93328.19
2023-03-07T07:20:19.380Z,93336.84
2023-03-07T07:22:46.219Z,93333.38
2023-03-07T07:25:13.137Z,93333.06
2023-03-07T07:27:39.745Z,93340.13
2023-03-07T07:30:07.816Z,93341.16
2023-03-07T07:32:34.874Z,93337.06
2023-03-07T07:35:01.545Z,93334.31
2023-03-07T07:37:28.274Z,93340.41
2023-03-07T07:39:54.921Z,93342.81
2023-03-07T07:42:21.583Z,93343.91
2023-03-07T07:44:48.382Z,93350.22
2023-03-07T07:47:15.104Z,93352.47
2023-03-07T07:49:41.818Z,93349.59
2023-03-07T07:52:08.510Z,93346.53
2023-03-07T07:54:35.201Z,93347.66
2023-03-07T07:57:02.323Z,93348.25
2023-03-07T07:59:29.092Z,93355.34
2023-03-07T08:01:55.801Z,93348.41
2023-03-07T08:04:22.444Z,93348.81
2023-03-07T08:06:49.756Z,93344.47
2023-03-07T08:09:16.583Z,93344.59
2023-03-07T08:11:43.198Z,93349.16
2023-03-07T08:14:10.053Z,93346.88
2023-03-07T08:16:36.775Z,93345.91
2023-03-07T08:19:03.797Z,93345.63
2023-03-07T08:21:30.920Z,93345.38
2023-03-07T08:23:57.592Z,93352.03
2023-03-07T08:26:24.929Z,93347.31
2023-03-07T08:28:51.535Z,93339.72
2023-03-07T08:31:23.539Z,93348.00
2023-03-07T08:33:51.285Z,93345.75
2023-03-07T08:36:18.397Z,93342.94
2023-03-07T08:38:50.880Z,93339.69
2023-03-07T08:41:18.283Z,93344.19
2023-03-07T08:43:44.868Z,93349.53
2023-03-07T08:46:11.535Z,93341.53
2023-03-07T08:48:38.298Z,93343.09
2023-03-07T08:51:07.559Z,93347.31
2023-03-07T08:53:34.563Z,93343.25
2023-03-07T08:56:01.265Z,93344.63
2023-03-07T08:58:27.912Z,93349.78
2023-03-07T09:00:54.491Z,93343.84
2023-03-07T09:03:21.188Z,93343.31
2023-03-07T09:05:47.818Z,93341.63
2023-03-07T09:08:14.452Z,93342.25
2023-03-07T09:10:41.081Z,93333.94
2023-03-07T09:13:07.730Z,93333.41
2023-03-07T09:15:34.424Z,93333.91
2023-03-07T09:18:01.042Z,93337.78
2023-03-07T09:20:27.660Z,93332.81
2023-03-07T09:22:54.390Z,93329.72
2023-03-07T09:25:21.093Z,93326.63
2023-03-07T09:27:47.799Z,93326.56
2023-03-07T09:30:15.189Z,93326.97
2023-03-07T09:32:42.429Z,93316.28
2023-03-07T09:35:10.377Z,93315.75
2023-03-07T09:37:38.150Z,93314.00
2023-03-07T09:40:07.773Z,93303.25
2023-03-07T09:42:46.627Z,93297.91
2023-03-07T09:45:19.167Z,93312.81
2023-03-07T09:47:57.500Z,93302.50
2023-03-07T09:50:43.850Z,93291.75
2023-03-07T09:53:23.045Z,93286.78
2023-03-07T09:55:52.812Z,93293.00
2023-03-07T09:58:23.514Z,93290.50
2023-03-07T10:00:57.019Z,93274.81
2023-03-07T10:03:47.097Z,93280.25
2023-03-07T10:06:36.554Z,93273.34
2023-03-07T10:09:05.594Z,93272.53
2023-03-07T10:11:35.094Z,93275.63
2023-03-07T10:14:33.752Z,93261.28
2023-03-07T10:17:06.194Z,93262.44
2023-03-07T10:19:49.173Z,93259.50
2023-03-07T10:22:25.146Z,93261.75
2023-03-07T10:25:17.115Z,93251.41
2023-03-07T10:27:46.921Z,93259.75
2023-03-07T10:30:19.074Z,93262.91
2023-03-07T10:32:55.745Z,93258.47
2023-03-07T10:35:32.095Z,93250.22
2023-03-07T10:38:33.531Z,93246.69
2023-03-07T10:41:12.165Z,93235.94
2023-03-07T10:43:39.684Z,93243.91
2023-03-07T10:46:25.735Z,93238.72
2023-03-07T10:49:10.153Z,93230.63
2023-03-07T10:51:44.495Z,93231.91
2023-03-07T10:54:15.539Z,93218.53
2023-03-07T10:57:02.255Z,93223.41
2023-03-07T10:59:28.855Z,93213.28
2023-03-07T11:01:58.567Z,93212.50
2023-03-07T11:04:28.200Z,93207.28
2023-03-07T11:07:00.631Z,93205.31
2023-03-07T11:09:27.190Z,93189.81
2023-03-07T11:12:21.840Z,93195.59
2023-03-07T11:15:00.048Z,93182.84
2023-03-07T11:17:30.609Z,93190.06
2023-03-07T11:19:58.263Z,93182.56
2023-03-07T11:22:33.923Z,93180.38
2023-03-07T11:25:14.751Z,93175.06
2023-03-07T11:27:57.656Z,93157.47
2023-03-07T11:30:42.681Z,93157.13
2023-03-07T11:33:24.685Z,93162.34
2023-03-07T11:36:09.495Z,93149.69
2023-03-07T11:38:41.170Z,93160.53
2023-03-07T11:41:30.883Z,93155.00
2023-03-07T11:44:14.510Z,93156.97
2023-03-07T11:46:59.283Z,93154.03
2023-03-07T11:49:34.875Z,93166.31
2023-03-07T11:52:15.860Z,93157.09
2023-03-07T11:54:42.412Z,93140.72
2023-03-07T11:57:37.698Z,93152.31
2023-03-07T12:00:04.409Z,93150.09
2023-03-07T12:02:31.001Z,93143.13
2023-03-07T12:05:14.338Z,93139.84
2023-03-07T12:08:07.024Z,93139.63
2023-03-07T12:10:54.987Z,93143.25
2023-03-07T12:13:36.729Z,93139.69
2023-03-07T12:16:28.751Z,93127.06
2023-03-07T12:19:00.347Z,93127.22
2023-03-07T12:21:35.980Z,93120.59
2023-03-07T12:24:12.973Z,93129.22
2023-03-07T12:26:57.978Z,93119.47
2023-03-07T12:29:41.401Z,93118.72
2023-03-07T12:32:16.331Z,93120.28
2023-03-07T12:34:52.342Z,93116.41
2023-03-07T12:37:47.707Z,93113.00
2023-03-07T12:40:21.120Z,93114.41
2023-03-07T12:43:15.119Z,93115.56
2023-03-07T12:45:49.083Z,93104.28
2023-03-07T12:48:53.147Z,93103.03
2023-03-07T12:51:30.747Z,93099.81
2023-03-07T12:54:11.940Z,93090.34
2023-03-07T12:57:02.255Z,93092.25
2023-03-07T12:59:32.765Z,93095.09
2023-03-07T13:02:04.429Z,93095.78
2023-03-07T13:04:35.298Z,93094.19
2023-03-07T13:07:17.136Z,93085.75
2023-03-07T13:09:47.416Z,93100.34
2023-03-07T13:12:16.117Z,93098.59
2023-03-07T13:14:45.473Z,93098.66
2023-03-07T13:17:30.278Z,93096.22
2023-03-07T13:20:29.798Z,93094.13
2023-03-07T13:22:59.640Z,93102.81
2023-03-07T13:25:27.468Z,93096.34
2023-03-07T13:28:02.228Z,93098.22
2023-03-07T13:30:32.574Z,93088.66
2023-03-07T13:33:01.944Z,93089.13
2023-03-07T13:35:28.715Z,93094.47
2023-03-07T13:37:58.112Z,93091.38
2023-03-07T13:40:39.961Z,93080.38
2023-03-07T13:43:28.253Z,93084.03
2023-03-07T13:45:59.779Z,93082.78
2023-03-07T13:48:30.070Z,93082.53
2023-03-07T13:51:00.230Z,93079.59
2023-03-07T13:53:42.578Z,93082.50
2023-03-07T13:56:15.126Z,93069.59
2023-03-07T13:58:59.212Z,93081.13
2023-03-07T14:01:39.334Z,93077.63
2023-03-07T14:04:15.093Z,93087.41
2023-03-07T14:06:52.862Z,93092.91
2023-03-07T14:09:23.525Z,93084.34
2023-03-07T14:12:20.786Z,93093.63
2023-03-07T14:15:21.384Z,93092.75
2023-03-07T14:17:53.805Z,93098.91
2023-03-07T14:20:45.030Z,93106.69
2023-03-07T14:23:26.763Z,93103.75
2023-03-07T14:26:07.820Z,93102.22
2023-03-07T14:28:34.499Z,93113.53
2023-03-07T14:31:06.747Z,93115.47
2023-03-07T14:33:39.281Z,93114.50
2023-03-07T14:36:19.949Z,93109.31
2023-03-07T14:38:48.626Z,93110.81
2023-03-07T14:41:31.790Z,93116.06
2023-03-07T14:44:26.030Z,93107.59
2023-03-07T14:47:00.068Z,93112.44
2023-03-07T14:49:36.004Z,93109.44
2023-03-07T14:52:03.905Z,93109.81
2023-03-07T14:54:34.143Z,93111.72
2023-03-07T14:57:02.227Z,93117.56
2023-03-07T14:59:29.689Z,93109.03
2023-03-07T15:01:57.459Z,93117.13
2023-03-07T15:04:29.842Z,93099.81
2023-03-07T15:07:00.052Z,93102.25
2023-03-07T15:09:27.759Z,93109.03
2023-03-07T15:12:07.104Z,93105.72
2023-03-07T15:14:44.575Z,93104.19
2023-03-07T15:17:26.870Z,93105.53
2023-03-07T15:20:07.765Z,93106.22
2023-03-07T15:22:40.337Z,93097.03
2023-03-07T15:25:27.385Z,93108.38
2023-03-07T15:28:16.896Z,93106.34
2023-03-07T15:30:48.768Z,93114.09
2023-03-07T15:33:18.380Z,93104.69
2023-03-07T15:35:47.338Z,93111.25
2023-03-07T15:38:19.109Z,93105.38
2023-03-07T15:40:46.112Z,93102.47
2023-03-07T15:43:27.723Z,93102.56
2023-03-07T15:46:05.058Z,93102.09
2023-03-07T15:48:36.542Z,93111.72
2023-03-07T15:51:06.481Z,93114.50
2023-03-07T15:53:43.186Z,93117.91
2023-03-07T15:56:21.721Z,93105.13
2023-03-07T15:58:48.993Z,93119.22
2023-03-07T16:01:24.186Z,93121.66
2023-03-07T16:03:55.574Z,93125.25
2023-03-07T16:06:44.570Z,93133.34
2023-03-07T16:09:18.346Z,93131.31
2023-03-07T16:11:46.551Z,93129.25
2023-03-07T16:14:29.013Z,93135.25
2023-03-07T16:16:58.579Z,93124.31
2023-03-07T16:19:25.433Z,93140.63
2023-03-07T16:21:52.101Z,93132.94
2023-03-07T16:24:18.780Z,93141.03
2023-03-07T16:26:46.636Z,93134.91
2023-03-07T16:29:16.877Z,93138.72
2023-03-07T16:31:43.873Z,93134.03
2023-03-07T16:34:22.143Z,93133.91
2023-03-07T16:36:48.794Z,93134.38
2023-03-07T16:39:15.910Z,93139.53
2023-03-07T16:41:48.246Z,93131.38
2023-03-07T16:44:20.584Z,93141.00
2023-03-07T16:46:55.366Z,93148.75
2023-03-07T16:49:23.038Z,93140.59
2023-03-07T16:52:04.434Z,93147.91
2023-03-07T16:54:32.757Z,93142.28
2023-03-07T16:57:01.392Z,93148.75
2023-03-07T16:59:34.755Z,93148.31
2023-03-07T17:02:01.907Z,93147.56
2023-03-07T17:04:28.699Z,93142.31
2023-03-07T17:07:04.361Z,93144.59
2023-03-07T17:09:31.602Z,93148.44
2023-03-07T17:11:58.439Z,93144.19
2023-03-07T17:14:25.234Z,93147.25
2023-03-07T17:16:51.819Z,93149.22
2023-03-07T17:19:29.810Z,93153.81
2023-03-07T17:21:58.694Z,93143.03
2023-03-07T17:24:25.965Z,93147.66
2023-03-07T17:26:53.819Z,93156.84
2023-03-07T17:29:40.947Z,93151.47
2023-03-07T17:32:08.420Z,93155.28
2023-03-07T17:34:37.003Z,93166.06
2023-03-07T17:37:04.025Z,93160.72
2023-03-07T17:39:31.472Z,93164.88
2023-03-07T17:41:59.232Z,93170.59
2023-03-07T17:44:26.076Z,93171.72
2023-03-07T17:46:53.476Z,93171.44
2023-03-07T17:49:21.109Z,93166.00
2023-03-07T17:51:48.872Z,93179.81
2023-03-07T17:54:16.839Z,93166.44
2023-03-07T17:56:43.667Z,93178.69
2023-03-07T17:59:10.261Z,93177.94
2023-03-07T18:01:37.401Z,93182.94
2023-03-07T18:04:06.431Z,93184.06
2023-03-07T18:06:34.140Z,93188.25
2023-03-07T18:09:06.423Z,93188.66
2023-03-07T18:11:36.252Z,93187.09
2023-03-07T18:14:03.709Z,93201.31
2023-03-07T18:16:30.630Z,93193.22
2023-03-07T18:19:00.054Z,93198.25
2023-03-07T18:21:29.830Z,93181.00
2023-03-07T18:23:57.713Z,93183.28
2023-03-07T18:26:24.436Z,93191.28
2023-03-07T18:28:53.327Z,93194.03
2023-03-07T18:31:22.970Z,93192.81
2023-03-07T18:33:51.428Z,93195.94
2023-03-07T18:36:21.189Z,93190.94
2023-03-07T18:38:48.290Z,93199.34
2023-03-07T18:41:20.845Z,93192.09
2023-03-07T18:43:47.775Z,93196.69
2023-03-07T18:46:17.448Z,93199.00
2023-03-07T18:48:44.202Z,93208.97
2023-03-07T18:51:14.667Z,93200.53
2023-03-07T18:53:42.196Z,93207.06
2023-03-07T18:56:11.736Z,93202.84
2023-03-07T18:58:38.944Z,93201.69
2023-03-07T19:01:17.405Z,93207.81
2023-03-07T19:03:45.992Z,93202.84
2023-03-07T19:06:13.667Z,93209.28
2023-03-07T19:08:40.810Z,93195.50
2023-03-07T19:11:09.754Z,93205.44
2023-03-07T19:13:37.046Z,93203.59
2023-03-07T19:16:13.108Z,93212.03
2023-03-07T19:18:40.288Z,93200.47
2023-03-07T19:21:08.840Z,93213.78
2023-03-07T19:23:35.659Z,93208.69
2023-03-07T19:26:04.040Z,93212.69
2023-03-07T19:28:31.023Z,93202.75
2023-03-07T19:30:57.911Z,93211.97
2023-03-07T19:33:25.066Z,93207.38
2023-03-07T19:36:05.983Z,93200.53
2023-03-07T19:38:32.964Z,93201.69
2023-03-07T19:41:00.122Z,93198.53
2023-03-07T19:43:27.795Z,93203.06
2023-03-07T19:45:55.725Z,93206.81
2023-03-07T19:48:23.529Z,93201.28
2023-03-07T19:50:51.372Z,93195.13
2023-03-07T19:53:18.009Z,93203.16
2023-03-07T19:55:44.908Z,93194.72
2023-03-07T19:58:11.711Z,93192.03
2023-03-07T20:00:40.144Z,93195.47
2023-03-07T20:03:06.831Z,93187.34
2023-03-07T20:05:33.427Z,93191.16
2023-03-07T20:08:00.247Z,93198.84
2023-03-07T20:10:26.854Z,93195.03
2023-03-07T20:12:54.610Z,93200.09
2023-03-07T20:15:21.237Z,93197.25
2023-03-07T20:17:47.809Z,93202.38
2023-03-07T20:20:14.527Z,93194.25
2023-03-07T20:22:42.371Z,93189.25
2023-03-07T20:25:09.595Z,93187.41
2023-03-07T20:27:36.639Z,93192.78
2023-03-07T20:30:03.951Z,93204.50
2023-03-07T20:32:30.884Z,93201.59
2023-03-07T20:34:59.576Z,93212.31
2023-03-07T20:37:27.634Z,93216.13
2023-03-07T20:39:54.378Z,93202.78
2023-03-07T20:42:21.037Z,93210.00
2023-03-07T20:44:48.071Z,93211.59
2023-03-07T20:47:14.792Z,93215.81
2023-03-07T20:49:41.419Z,93214.13
2023-03-07T20:52:08.083Z,93225.59
2023-03-07T20:54:34.725Z,93229.06
2023-03-07T20:57:01.339Z,93230.34
2023-03-07T20:59:28.030Z,93248.72
2023-03-07T21:01:55.583Z,93241.22
2023-03-07T21:04:22.699Z,93248.75
2023-03-07T21:06:49.535Z,93249.97
2023-03-07T21:09:17.923Z,93248.72
2023-03-07T21:11:47.335Z,93246.75
2023-03-07T21:14:15.153Z,93243.44
2023-03-07T21:16:43.196Z,93246.50
2023-03-07T21:19:11.552Z,93239.25
2023-03-07T21:21:39.519Z,93236.06
2023-03-07T21:24:06.402Z,93238.34
2023-03-07T21:26:38.584Z,93236.81
2023-03-07T21:29:05.503Z,93232.63
2023-03-07T21:31:34.324Z,93235.91
2023-03-07T21:34:11.383Z,93235.66
2023-03-07T21:36:38.185Z,93232.22
2023-03-07T21:39:07.830Z,93234.56
2023-03-07T21:41:34.755Z,93237.22
2023-03-07T21:44:01.772Z,93224.97
2023-03-07T21:46:28.699Z,93244.09
2023-03-07T21:48:58.638Z,93241.81
2023-03-07T21:51:25.388Z,93245.56
2023-03-07T21:53:52.029Z,93254.69
2023-03-07T21:56:18.698Z,93247.13
2023-03-07T21:58:49.990Z,93242.44
2023-03-07T22:01:22.058Z,93239.28
2023-03-07T22:03:51.967Z,93243.59
2023-03-07T22:06:18.728Z,93240.88
2023-03-07T22:08:45.365Z,93259.13
2023-03-07T22:11:12.959Z,93252.81
2023-03-07T22:13:41.512Z,93249.72
2023-03-07T22:16:11.852Z,93245.75
2023-03-07T22:18:38.625Z,93255.41
2023-03-07T22:21:10.154Z,93254.09
2023-03-07T22:23:37.146Z,93254.84
2023-03-07T22:26:05.903Z,93249.94
2023-03-07T22:28:33.270Z,93262.16
2023-03-07T22:31:11.734Z,93257.66
2023-03-07T22:33:39.329Z,93259.44
2023-03-07T22:36:08.510Z,93253.69
2023-03-07T22:38:35.309Z,93255.22
2023-03-07T22:41:04.302Z,93256.00
2023-03-07T22:43:34.287Z,93257.91
2023-03-07T22:46:02.302Z,93261.47
2023-03-07T22:48:30.025Z,93262.94
2023-03-07T22:50:57.000Z,93259.44
2023-03-07T22:53:25.926Z,93260.28
2023-03-07T22:55:53.599Z,93259.44
2023-03-07T22:58:20.315Z,93272.38
2023-03-07T23:00:47.070Z,93272.72
2023-03-07T23:03:13.764Z,93274.50
2023-03-07T23:05:40.563Z,93270.81
2023-03-07T23:08:07.175Z,93263.53
2023-03-07T23:10:34.344Z,93276.78
2023-03-07T23:13:01.013Z,93265.25
2023-03-07T23:15:27.882Z,93266.94
2023-03-07T23:17:54.782Z,93263.59
2023-03-07T23:20:25.423Z,93273.13
2023-03-07T23:22:53.173Z,93272.41
2023-03-07T23:25:20.308Z,93267.66
2023-03-07T23:27:47.061Z,93273.06
2023-03-07T23:30:14.235Z,93285.97
2023-03-07T23:32:40.968Z,93275.22
2023-03-07T23:35:08.017Z,93269.56
2023-03-07T23:37:35.886Z,93274.25
2023-03-07T23:40:02.564Z,93275.91
2023-03-07T23:42:29.177Z,93283.63
2023-03-07T23:44:56.282Z,93275.03
2023-03-07T23:47:22.897Z,93277.81
2023-03-07T23:49:49.553Z,93295.75
2023-03-07T23:52:16.265Z,93278.81
2023-03-07T23:54:45.253Z,93280.75
2023-03-07T23:57:11.901Z,93284.03
2023-03-07T23:59:38.511Z,93290.03
